Clarinda, IA

12:59 AM CST on December 14, 2017 (GMT -0600)
Schenck

Weather History for KICL - May, 2014

Change the Weather History Date:

Monday, May 5, 2014

  Actual Average Record
Temperature  
Mean Temperature 60 °F -  
Max Temperature 71 °F 68 °F 86 °F (2004)
Min Temperature 48 °F 47 °F 35 °F (2005)
Degree Days  
Heating Degree Days 6    
Growing Degree Days 10 (Base 50)    
Moisture  
Dew Point 42 °F    
Average Humidity 49    
Maximum Humidity 71    
Minimum Humidity 35    
Precipitation  
Precipitation 0.00 in - - ()
Sea Level Pressure  
Sea Level Pressure 29.80 in    
Wind  
Wind Speed 11 mph (NE)    
Max Wind Speed 16 mph    
Max Gust Speed 24 mph    
Visibility 10 miles    
Events      
Averages and records for this station are not official NWS values.
T = Trace of Precipitation, MM = Missing Value Source: NWS Daily Summary

Daily Weather History Graph

Daily Weather History Graph

Search for Another Location

Airport or City:

Trip Planner

Search our weather history database for the weather conditions in past years. The results will help you decide how hot, cold, wet, or windy it might be!

Date:

Astronomy

May. 05, 2014 Rise Set
Actual Time 6:13 AM CDT 8:20 PM CDT
Civil Twilight 5:43 AM CDT 8:50 PM CDT
Nautical Twilight 5:06 AM CDT 9:27 PM CDT
Astronomical Twilight 4:26 AM CDT 10:08 PM CDT
Moon 11:34 AM CDT (5/5) 1:05 AM CDT (5/5)
Length of Visible Light 15h 06m
Length of Day
14h 06m
Waxing Crescent, 37% of the Moon is Illuminated
May 5
Waxing Crescent
May 6
First Quarter
May 14
Full
May 21
Last Quarter
May 28
New

Hourly Weather History & Observations

Time (CDT) Temp. Dew Point Humidity Pressure Visibility Wind Dir Wind Speed Gust Speed Precip Events Conditions
12:15 AM 62.6 °F 41.0 °F 45% 29.79 in 10.0 mi East 15.0 mph 21.9 mph N/A   Clear
12:35 AM 60.8 °F 42.8 °F 52% 29.79 in 10.0 mi ENE 13.8 mph 20.7 mph N/A   Clear
1:00 AM 59.0 °F 42.8 °F 55% 29.79 in 10.0 mi NE 12.7 mph - N/A   Clear
1:10 AM 59.0 °F 42.8 °F 55% 29.79 in 10.0 mi ENE 10.4 mph - N/A   Clear
1:35 AM 57.2 °F 41.0 °F 55% 29.78 in 10.0 mi ENE 9.2 mph 16.1 mph N/A   Clear
1:55 AM 55.4 °F 41.0 °F 58% 29.76 in 10.0 mi East 6.9 mph 17.3 mph N/A   Clear
2:15 AM 55.4 °F 41.0 °F 58% 29.77 in 10.0 mi NE 6.9 mph 15.0 mph N/A   Clear
2:35 AM 55.4 °F 41.0 °F 58% 29.79 in 10.0 mi NNE 11.5 mph 18.4 mph N/A   Clear
2:55 AM 53.6 °F 41.0 °F 62% 29.79 in 10.0 mi NE 6.9 mph 12.7 mph N/A   Clear
3:15 AM 53.6 °F 41.0 °F 62% 29.78 in 10.0 mi NE 9.2 mph - N/A   Clear
3:35 AM 51.8 °F 41.0 °F 67% 29.78 in 10.0 mi NNE 9.2 mph - N/A   Clear
3:50 AM 51.8 °F 41.0 °F 67% 29.79 in 10.0 mi NNE 8.1 mph - N/A   Clear
4:20 AM 51.8 °F 41.0 °F 67% 29.79 in 10.0 mi NE 6.9 mph 13.8 mph N/A   Clear
4:40 AM 51.8 °F 41.0 °F 67% 29.78 in 10.0 mi Variable 6.9 mph - N/A   Clear
5:15 AM 51.8 °F 39.2 °F 62% 29.80 in 10.0 mi NNE 9.2 mph - N/A   Clear
5:35 AM 51.8 °F 39.2 °F 62% 29.80 in 10.0 mi NNE 10.4 mph - N/A   Clear
6:00 AM 50.0 °F 39.2 °F 66% 29.80 in 10.0 mi NE 6.9 mph - N/A   Clear
6:15 AM 50.0 °F 39.2 °F 66% 29.80 in 10.0 mi NNE 9.2 mph - N/A   Clear
6:35 AM 48.2 °F 39.2 °F 71% 29.80 in 10.0 mi NE 8.1 mph - N/A   Clear
6:55 AM 50.0 °F 39.2 °F 66% 29.81 in 10.0 mi NNE 8.1 mph - N/A   Clear
7:15 AM 51.8 °F 39.2 °F 62% 29.81 in 10.0 mi NE 6.9 mph - N/A   Clear
7:35 AM 51.8 °F 39.2 °F 62% 29.82 in 10.0 mi ENE 9.2 mph - N/A   Clear
7:55 AM 51.8 °F 39.2 °F 62% 29.81 in 10.0 mi ENE 9.2 mph - N/A   Clear
8:15 AM 53.6 °F 39.2 °F 58% 29.83 in 10.0 mi NE 11.5 mph - N/A   Clear
8:35 AM 55.4 °F 39.2 °F 54% 29.83 in 10.0 mi NE 9.2 mph - N/A   Clear
8:55 AM 55.4 °F 39.2 °F 54% 29.82 in 10.0 mi NE 11.5 mph - N/A   Clear
9:15 AM 55.4 °F 39.2 °F 54% 29.82 in 10.0 mi NE 11.5 mph - N/A   Clear
9:35 AM 57.2 °F 39.2 °F 51% 29.82 in 10.0 mi NE 9.2 mph 15.0 mph N/A   Clear
9:55 AM 59.0 °F 39.2 °F 48% 29.81 in 10.0 mi ENE 9.2 mph 16.1 mph N/A   Clear
10:15 AM 60.8 °F 39.2 °F 45% 29.81 in 10.0 mi NE 10.4 mph - N/A   Clear
10:35 AM 60.8 °F 39.2 °F 45% 29.82 in 10.0 mi NNE 13.8 mph - N/A   Clear
10:55 AM 62.6 °F 39.2 °F 42% 29.83 in 10.0 mi ENE 8.1 mph 17.3 mph N/A   Clear
11:15 AM 62.6 °F 39.2 °F 42% 29.83 in 10.0 mi NNE 15.0 mph - N/A   Clear
11:35 AM 64.4 °F 39.2 °F 40% 29.83 in 10.0 mi NNE 12.7 mph 18.4 mph N/A   Clear
11:55 AM 64.4 °F 37.4 °F 37% 29.83 in 10.0 mi NE 11.5 mph 19.6 mph N/A   Clear
12:15 PM 66.2 °F 39.2 °F 37% 29.81 in 10.0 mi NE 15.0 mph - N/A   Clear
12:35 PM 66.2 °F 39.2 °F 37% 29.81 in 10.0 mi NE 16.1 mph 24.2 mph N/A   Clear
12:55 PM 66.2 °F 39.2 °F 37% 29.81 in 10.0 mi NE 15.0 mph 21.9 mph N/A   Clear
1:15 PM 68.0 °F 39.2 °F 35% 29.82 in 10.0 mi ENE 12.7 mph 20.7 mph N/A   Clear
1:35 PM 68.0 °F 41.0 °F 37% 29.82 in 10.0 mi NE 13.8 mph 21.9 mph N/A   Clear
1:55 PM 69.8 °F 41.0 °F 35% 29.82 in 10.0 mi NE 15.0 mph 21.9 mph N/A   Clear
2:15 PM 69.8 °F 41.0 °F 35% 29.83 in 10.0 mi NE 12.7 mph 19.6 mph N/A   Clear
2:35 PM 69.8 °F 41.0 °F 35% 29.83 in 10.0 mi NE 11.5 mph - N/A   Clear
2:55 PM 69.8 °F 42.8 °F 38% 29.82 in 10.0 mi ENE 15.0 mph - N/A   Clear
3:15 PM 71.6 °F 42.8 °F 35% 29.82 in 10.0 mi NE 13.8 mph - N/A   Clear
3:35 PM 71.6 °F 42.8 °F 35% 29.81 in 10.0 mi NE 11.5 mph 18.4 mph N/A   Clear
3:55 PM 71.6 °F 42.8 °F 35% 29.80 in 10.0 mi NE 11.5 mph 20.7 mph N/A   Clear
4:15 PM 71.6 °F 42.8 °F 35% 29.80 in 10.0 mi NE 13.8 mph - N/A   Clear
4:35 PM 71.6 °F 42.8 °F 35% 29.79 in 10.0 mi ENE 11.5 mph 19.6 mph N/A   Clear
4:55 PM 71.6 °F 42.8 °F 35% 29.78 in 10.0 mi NE 13.8 mph 19.6 mph N/A   Clear
5:15 PM 71.6 °F 42.8 °F 35% 29.78 in 10.0 mi ENE 16.1 mph - N/A   Clear
5:30 PM 71.6 °F 44.6 °F 38% 29.79 in 10.0 mi ENE 11.5 mph 19.6 mph N/A   Clear
5:55 PM 71.6 °F 44.6 °F 38% 29.79 in 10.0 mi ENE 13.8 mph 21.9 mph N/A   Clear
6:15 PM 71.6 °F 44.6 °F 38% 29.79 in 10.0 mi East 11.5 mph - N/A   Clear
6:35 PM 71.6 °F 44.6 °F 38% 29.78 in 10.0 mi East 10.4 mph 17.3 mph N/A   Clear
6:55 PM 69.8 °F 44.6 °F 40% 29.79 in 10.0 mi ENE 11.5 mph - N/A   Clear
7:15 PM 69.8 °F 44.6 °F 40% 29.79 in 10.0 mi ENE 10.4 mph - N/A   Clear
7:35 PM 68.0 °F 44.6 °F 43% 29.79 in 10.0 mi NE 9.2 mph - N/A   Clear
7:55 PM 66.2 °F 44.6 °F 46% 29.79 in 10.0 mi East 6.9 mph - N/A   Clear
8:15 PM 66.2 °F 44.6 °F 46% 29.80 in 10.0 mi NE 4.6 mph - N/A   Clear
8:35 PM 64.4 °F 44.6 °F 49% 29.80 in 10.0 mi ENE 6.9 mph - N/A   Clear
8:55 PM 64.4 °F 44.6 °F 49% 29.80 in 10.0 mi ENE 5.8 mph - N/A   Clear
9:15 PM 62.6 °F 44.6 °F 52% 29.80 in 10.0 mi ENE 5.8 mph - N/A   Clear
9:35 PM 62.6 °F 44.6 °F 52% 29.81 in 10.0 mi East 6.9 mph - N/A   Clear
9:55 PM 62.6 °F 44.6 °F 52% 29.81 in 10.0 mi East 6.9 mph - N/A   Clear
10:15 PM 62.6 °F 44.6 °F 52% 29.82 in 10.0 mi NE 6.9 mph - N/A   Clear
10:35 PM 60.8 °F 44.6 °F 55% 29.82 in 10.0 mi East 6.9 mph - N/A   Clear
10:55 PM 60.8 °F 44.6 °F 55% 29.81 in 10.0 mi East 5.8 mph - N/A   Clear
11:15 PM 60.8 °F 44.6 °F 55% 29.81 in 10.0 mi Variable 4.6 mph - N/A   Clear
11:35 PM 60.8 °F 44.6 °F 55% 29.82 in 10.0 mi East 6.9 mph - N/A   Clear
11:55 PM 60.8 °F 44.6 °F 55% 29.81 in 10.0 mi East 8.1 mph - N/A   Clear